Time;durP1;ratioP1;P1;durP2;ratioP2;P2;SDS_P1;SDS_P2;PMS_P1;PMS_P2;Temp;Humidity;BMP_temperature;BMP_pressure;BME280_temperature;BME280_humidity;BME280_pressure;Samples;Min_cycle;Max_cycle;Signal;HPM_P1;HPM_P2
2023/05/28 00:00:02;;;;;;;4.13;3.25;;;;;;;;;;5094121;28;20418;-63
2023/05/28 00:02:37;;;;;;;4.90;2.95;;;;;;;;;;5094412;28;20036;-63
2023/05/28 00:05:03;;;;;;;4.50;3.28;;;;;;;;;;5076141;28;20108;-63
2023/05/28 00:07:30;;;;;;;2.80;2.60;;;;;;;;;;5094395;28;20024;-63
2023/05/28 00:09:55;;;;;;;2.92;2.45;;;;;;;;;;5094343;28;20123;-63
2023/05/28 00:12:21;;;;;;;3.70;2.80;;;;;;;;;;5093816;28;20056;-62
2023/05/28 00:14:47;;;;;;;4.10;2.53;;;;;;;;;;5094131;28;20468;-63
2023/05/28 00:17:13;;;;;;;3.10;2.80;;;;;;;;;;5093959;28;20028;-62
2023/05/28 00:19:38;;;;;;;3.05;2.78;;;;;;;;;;5094365;28;20503;-62
2023/05/28 00:22:03;;;;;;;2.75;2.53;;;;;;;;;;5094212;28;20371;-62
2023/05/28 00:24:29;;;;;;;3.35;2.58;;;;;;;;;;5076369;28;20050;-62
2023/05/28 00:26:54;;;;;;;2.80;2.60;;;;;;;;;;5094240;28;20030;-61
2023/05/28 00:29:20;;;;;;;2.28;2.10;;;;;;;;;;5076083;28;20028;-61
2023/05/28 00:31:45;;;;;;;3.75;2.30;;;;;;;;;;5076509;28;20051;-62
2023/05/28 00:34:10;;;;;;;2.65;2.38;;;;;;;;;;5094046;28;20410;-62
2023/05/28 00:36:36;;;;;;;2.50;2.30;;;;;;;;;;5128395;22;20047;-65
2023/05/28 00:39:04;;;;;;;4.72;2.72;;;;;;;;;;5088802;22;20463;-64
2023/05/28 00:41:30;;;;;;;2.72;2.20;;;;;;;;;;5052214;28;20376;-64
2023/05/28 00:44:03;;;;;;;2.45;2.20;;;;;;;;;;5053365;28;20017;-64
2023/05/28 00:46:29;;;;;;;3.58;2.30;;;;;;;;;;5053320;28;20120;-64
2023/05/28 00:48:54;;;;;;;4.43;2.00;;;;;;;;;;5051783;28;20116;-64
2023/05/28 00:51:19;;;;;;;4.20;2.17;;;;;;;;;;5053218;28;20045;-64
2023/05/28 00:53:45;;;;;;;2.03;1.83;;;;;;;;;;5052362;28;20453;-65
2023/05/28 00:56:11;;;;;;;2.70;2.15;;;;;;;;;;5052325;28;20025;-65
2023/05/28 00:58:40;;;;;;;6.93;1.85;;;;;;;;;;5053499;28;20032;-65
2023/05/28 01:01:07;;;;;;;2.20;1.83;;;;;;;;;;5053487;28;20029;-65
2023/05/28 01:03:37;;;;;;;2.05;1.88;;;;;;;;;;5053165;28;20063;-67
2023/05/28 01:06:03;;;;;;;2.97;2.20;;;;;;;;;;5052767;28;20029;-66
2023/05/28 01:08:29;;;;;;;3.53;1.90;;;;;;;;;;5089238;28;20057;-66
2023/05/28 01:10:54;;;;;;;2.08;1.85;;;;;;;;;;5056995;28;20029;-66
2023/05/28 01:13:20;;;;;;;4.32;1.95;;;;;;;;;;5055973;28;20060;-66
2023/05/28 01:15:47;;;;;;;4.85;2.20;;;;;;;;;;5058805;28;20035;-66
2023/05/28 01:18:13;;;;;;;3.15;1.83;;;;;;;;;;5076840;28;20017;-70
2023/05/28 01:20:38;;;;;;;2.83;1.65;;;;;;;;;;5077048;28;20028;-69
2023/05/28 01:23:07;;;;;;;3.97;2.10;;;;;;;;;;5058636;28;20124;-68
2023/05/28 01:25:33;;;;;;;2.15;1.77;;;;;;;;;;5076921;28;20033;-68
2023/05/28 01:28:01;;;;;;;2.20;1.70;;;;;;;;;;5059070;28;20059;-67
2023/05/28 01:30:26;;;;;;;2.28;1.80;;;;;;;;;;5058490;28;20029;-69
2023/05/28 01:32:52;;;;;;;1.73;1.60;;;;;;;;;;5059277;28;20070;-68
2023/05/28 01:35:17;;;;;;;2.00;1.80;;;;;;;;;;5058593;28;20066;-68
2023/05/28 01:37:47;;;;;;;3.70;1.80;;;;;;;;;;5059224;28;20062;-67
2023/05/28 01:40:14;;;;;;;2.95;1.83;;;;;;;;;;5022277;28;20063;-69
2023/05/28 01:42:40;;;;;;;3.55;1.58;;;;;;;;;;5039043;28;20033;-69
2023/05/28 01:45:06;;;;;;;2.33;1.70;;;;;;;;;;5055317;28;20526;-69
2023/05/28 01:47:36;;;;;;;1.92;1.83;;;;;;;;;;5039275;28;20075;-68
2023/05/28 01:50:02;;;;;;;2.95;1.80;;;;;;;;;;5071545;28;20507;-68
2023/05/28 01:52:28;;;;;;;3.30;1.70;;;;;;;;;;5038493;28;20029;-68
2023/05/28 01:54:54;;;;;;;3.60;1.90;;;;;;;;;;5056509;28;20025;-68
2023/05/28 01:57:19;;;;;;;2.50;1.60;;;;;;;;;;5038431;28;20013;-66
2023/05/28 01:59:45;;;;;;;2.85;1.63;;;;;;;;;;5071904;28;20056;-64
2023/05/28 02:02:10;;;;;;;3.67;1.60;;;;;;;;;;5038415;28;20078;-64
2023/05/28 02:04:36;;;;;;;2.72;1.48;;;;;;;;;;5072236;28;20040;-63
2023/05/28 02:07:09;;;;;;;1.85;1.67;;;;;;;;;;5071722;28;20027;-63
2023/05/28 02:09:34;;;;;;;2.25;1.63;;;;;;;;;;5071578;28;20453;-64
2023/05/28 02:12:02;;;;;;;2.38;1.80;;;;;;;;;;5056190;28;20027;-64
2023/05/28 02:14:29;;;;;;;3.30;1.75;;;;;;;;;;5056248;28;20021;-64
2023/05/28 02:16:54;;;;;;;1.80;1.70;;;;;;;;;;5037948;28;20465;-64
2023/05/28 02:19:20;;;;;;;1.70;1.48;;;;;;;;;;5070422;28;20056;-67
2023/05/28 02:21:45;;;;;;;3.78;1.50;;;;;;;;;;5037878;28;20033;-67
2023/05/28 02:24:10;;;;;;;1.75;1.48;;;;;;;;;;5071349;28;20028;-67
2023/05/28 02:26:37;;;;;;;2.45;1.50;;;;;;;;;;5055607;28;20436;-67
2023/05/28 02:29:02;;;;;;;1.98;1.42;;;;;;;;;;5055770;28;20530;-66
2023/05/28 02:31:27;;;;;;;1.73;1.50;;;;;;;;;;5055666;28;20025;-67
2023/05/28 02:33:53;;;;;;;3.03;1.60;;;;;;;;;;5055842;28;20020;-66
2023/05/28 02:36:18;;;;;;;2.25;1.83;;;;;;;;;;5055697;28;20050;-66
2023/05/28 02:38:44;;;;;;;3.08;1.50;;;;;;;;;;5032976;28;20060;-66
2023/05/28 02:41:09;;;;;;;2.88;1.67;;;;;;;;;;5054954;28;20028;-66
2023/05/28 02:43:36;;;;;;;4.80;1.80;;;;;;;;;;5037902;28;20029;-66
2023/05/28 02:46:04;;;;;;;1.70;1.58;;;;;;;;;;5037781;28;20032;-69
2023/05/28 02:48:34;;;;;;;1.60;1.50;;;;;;;;;;5037745;28;20021;-69
2023/05/28 02:50:59;;;;;;;3.30;1.35;;;;;;;;;;5037176;28;20043;-68
2023/05/28 02:53:45;;;;;;;1.58;1.40;;;;;;;;;;5040339;28;20025;-68
2023/05/28 02:56:14;;;;;;;1.60;1.48;;;;;;;;;;5037783;28;20396;-70
2023/05/28 02:58:43;;;;;;;1.77;1.60;;;;;;;;;;5037583;28;20119;-67
2023/05/28 03:01:08;;;;;;;1.58;1.35;;;;;;;;;;5070909;28;20132;-66
2023/05/28 03:03:34;;;;;;;3.08;1.30;;;;;;;;;;5037424;28;20372;-67
2023/05/28 03:06:01;;;;;;;1.52;1.40;;;;;;;;;;5070255;28;20029;-66
2023/05/28 03:08:29;;;;;;;1.77;1.37;;;;;;;;;;5053488;28;20033;-66
2023/05/28 03:10:55;;;;;;;1.52;1.38;;;;;;;;;;5070535;28;20453;-66
2023/05/28 03:13:20;;;;;;;3.45;1.50;;;;;;;;;;5037178;28;20405;-66
2023/05/28 03:15:46;;;;;;;1.85;1.60;;;;;;;;;;5055014;28;20020;-66
2023/05/28 03:18:11;;;;;;;1.83;1.40;;;;;;;;;;5070410;28;20377;-66
2023/05/28 03:20:38;;;;;;;4.47;1.75;;;;;;;;;;5037088;28;20032;-67
2023/05/28 03:23:04;;;;;;;2.65;1.40;;;;;;;;;;5070331;28;20028;-66
2023/05/28 03:25:32;;;;;;;3.10;1.70;;;;;;;;;;5069992;28;20025;-66
2023/05/28 03:27:57;;;;;;;2.28;1.48;;;;;;;;;;5069726;28;20036;-67
2023/05/28 03:30:33;;;;;;;2.00;1.30;;;;;;;;;;5054379;28;20029;-67
2023/05/28 03:32:59;;;;;;;1.88;1.40;;;;;;;;;;5036555;28;20484;-67
2023/05/28 03:35:24;;;;;;;1.45;1.20;;;;;;;;;;5053620;28;20036;-67
2023/05/28 03:37:50;;;;;;;4.93;1.60;;;;;;;;;;5053154;28;20107;-67
2023/05/28 03:40:16;;;;;;;1.75;1.60;;;;;;;;;;5073151;28;20037;-67
2023/05/28 03:42:41;;;;;;;2.85;1.52;;;;;;;;;;5056141;28;20035;-67
2023/05/28 03:45:07;;;;;;;2.80;1.50;;;;;;;;;;5056152;28;20468;-67
2023/05/28 03:47:33;;;;;;;3.65;1.60;;;;;;;;;;5056430;28;20021;-67
2023/05/28 03:49:59;;;;;;;2.35;1.90;;;;;;;;;;5073886;28;20111;-66
2023/05/28 03:52:27;;;;;;;1.33;1.23;;;;;;;;;;5055991;28;20503;-66
2023/05/28 03:54:53;;;;;;;1.50;1.40;;;;;;;;;;5056343;28;20066;-65
2023/05/28 03:57:18;;;;;;;1.77;1.60;;;;;;;;;;5056417;28;20059;-65
2023/05/28 03:59:44;;;;;;;2.47;1.48;;;;;;;;;;5072582;28;20133;-66
2023/05/28 04:02:09;;;;;;;3.47;1.45;;;;;;;;;;5055754;28;20043;-65
2023/05/28 04:04:35;;;;;;;3.47;1.60;;;;;;;;;;5055880;28;20035;-66
2023/05/28 04:07:00;;;;;;;1.63;1.50;;;;;;;;;;5074130;28;20051;-66
2023/05/28 04:09:27;;;;;;;2.13;1.50;;;;;;;;;;5055638;28;20507;-65
2023/05/28 04:11:53;;;;;;;2.20;1.40;;;;;;;;;;5089183;28;20024;-65
2023/05/28 04:14:19;;;;;;;2.58;1.45;;;;;;;;;;5056203;28;20039;-68
2023/05/28 04:16:44;;;;;;;1.80;1.67;;;;;;;;;;5055719;28;20518;-63
2023/05/28 04:19:10;;;;;;;2.05;1.70;;;;;;;;;;5073719;28;20082;-62
2023/05/28 04:21:45;;;;;;;3.42;1.50;;;;;;;;;;5089760;28;20032;-66
2023/05/28 04:24:11;;;;;;;2.97;1.48;;;;;;;;;;5089806;28;20024;-66
2023/05/28 04:26:49;;;;;;;3.83;1.63;;;;;;;;;;5056238;28;20066;-67
2023/05/28 04:29:15;;;;;;;2.33;1.80;;;;;;;;;;5073865;28;20031;-67
2023/05/28 04:32:08;;;;;;;2.40;1.50;;;;;;;;;;5081729;23;20087;31
2023/05/28 04:34:42;;;;;;;2.00;1.90;;;;;;;;;;5011136;28;20041;-68
2023/05/28 04:37:07;;;;;;;2.33;1.70;;;;;;;;;;5033173;28;20424;-68
2023/05/28 04:39:37;;;;;;;3.67;2.00;;;;;;;;;;5015744;28;20124;-65
2023/05/28 04:42:03;;;;;;;2.63;1.87;;;;;;;;;;5017683;28;20493;-65
2023/05/28 04:44:32;;;;;;;3.15;1.83;;;;;;;;;;5019758;28;20014;-68
2023/05/28 04:46:59;;;;;;;4.50;1.85;;;;;;;;;;5026126;28;20116;-65
2023/05/28 04:49:25;;;;;;;3.10;2.35;;;;;;;;;;5037122;28;20112;-66
2023/05/28 04:51:51;;;;;;;2.20;1.70;;;;;;;;;;5019535;28;20484;-65
2023/05/28 04:54:18;;;;;;;1.73;1.60;;;;;;;;;;5019888;28;20080;-68
2023/05/28 04:56:43;;;;;;;2.30;1.63;;;;;;;;;;5019947;28;20026;-65
2023/05/28 04:59:09;;;;;;;5.50;1.60;;;;;;;;;;5003640;28;20434;-66
2023/05/28 05:01:39;;;;;;;1.85;1.48;;;;;;;;;;5035996;28;20033;-66
2023/05/28 05:04:05;;;;;;;4.05;1.80;;;;;;;;;;5018540;28;20095;-66
2023/05/28 05:06:31;;;;;;;1.92;1.77;;;;;;;;;;5019220;28;20453;-66
2023/05/28 05:08:56;;;;;;;4.00;1.70;;;;;;;;;;5037383;28;20025;-65
2023/05/28 05:11:22;;;;;;;2.35;1.58;;;;;;;;;;5019348;28;20499;-66
2023/05/28 05:13:48;;;;;;;3.17;1.80;;;;;;;;;;5019583;28;20048;-66
2023/05/28 05:16:13;;;;;;;3.42;1.60;;;;;;;;;;5019173;28;20049;-63
2023/05/28 05:18:39;;;;;;;2.80;1.83;;;;;;;;;;5019186;28;20026;-70
2023/05/28 05:21:04;;;;;;;2.50;2.08;;;;;;;;;;5019213;28;20034;-72
2023/05/28 05:23:30;;;;;;;3.45;1.70;;;;;;;;;;5037081;28;20021;-68
2023/05/28 05:25:55;;;;;;;3.97;1.80;;;;;;;;;;5019080;28;20021;-68
2023/05/28 05:28:20;;;;;;;1.90;1.63;;;;;;;;;;5036967;28;20044;-67
2023/05/28 05:30:47;;;;;;;4.50;1.88;;;;;;;;;;5002677;28;20037;-68
2023/05/28 05:33:12;;;;;;;4.32;2.00;;;;;;;;;;5018715;28;20485;-68
2023/05/28 05:35:57;;;;;;;4.47;2.20;;;;;;;;;;5020088;28;20429;-69
2023/05/28 05:38:41;;;;;;;3.58;2.00;;;;;;;;;;5036847;28;20045;-70
2023/05/28 05:41:42;;;;;;;3.25;1.85;;;;;;;;;;4975386;28;20461;-70
2023/05/28 05:44:13;;;;;;;2.08;1.85;;;;;;;;;;5008235;28;20041;-70
2023/05/28 05:46:38;;;;;;;1.95;1.77;;;;;;;;;;5036534;28;20034;-69
2023/05/28 05:49:04;;;;;;;3.85;1.80;;;;;;;;;;5019101;28;20458;-69
2023/05/28 05:51:32;;;;;;;3.30;1.60;;;;;;;;;;5018686;28;20028;-69
2023/05/28 05:53:57;;;;;;;3.17;1.90;;;;;;;;;;5019234;28;20121;-68
2023/05/28 05:56:23;;;;;;;2.92;1.42;;;;;;;;;;5018453;28;20044;-68
2023/05/28 05:58:48;;;;;;;2.30;1.67;;;;;;;;;;5036900;28;20033;-68
2023/05/28 06:01:16;;;;;;;3.22;1.60;;;;;;;;;;5018737;28;20421;-68
2023/05/28 06:03:42;;;;;;;1.95;1.50;;;;;;;;;;5033943;28;20025;-68
2023/05/28 06:06:38;;;;;;;2.13;1.70;;;;;;;;;;5011360;28;20041;-67
2023/05/28 06:09:42;;;;;;;2.17;1.48;;;;;;;;;;4973658;28;20057;-64
2023/05/28 06:12:15;;;;;;;4.35;2.00;;;;;;;;;;4959816;28;20387;-64
2023/05/28 06:14:41;;;;;;;2.60;1.38;;;;;;;;;;4979393;28;20484;-64
2023/05/28 06:17:06;;;;;;;2.83;1.50;;;;;;;;;;5015292;28;20022;-64
2023/05/28 06:19:33;;;;;;;4.40;1.60;;;;;;;;;;4998363;28;20038;-64
2023/05/28 06:21:59;;;;;;;4.80;1.90;;;;;;;;;;4981976;28;20366;-65
2023/05/28 06:24:24;;;;;;;1.88;1.40;;;;;;;;;;4997388;28;20040;-62
2023/05/28 06:26:50;;;;;;;6.03;1.65;;;;;;;;;;4997448;28;20028;-66
2023/05/28 06:29:16;;;;;;;3.20;1.40;;;;;;;;;;4997349;28;20052;-65
2023/05/28 06:31:41;;;;;;;3.58;1.40;;;;;;;;;;4997966;28;20052;-65
2023/05/28 06:34:07;;;;;;;2.75;1.40;;;;;;;;;;5015370;28;20116;-65
2023/05/28 06:36:33;;;;;;;2.78;1.20;;;;;;;;;;5013986;28;20040;-65
2023/05/28 06:38:59;;;;;;;1.58;1.42;;;;;;;;;;5029608;28;20068;-65
2023/05/28 06:41:25;;;;;;;2.75;1.42;;;;;;;;;;5000779;28;20463;-66
2023/05/28 06:43:52;;;;;;;3.00;1.40;;;;;;;;;;5017200;28;20022;-66
2023/05/28 06:46:41;;;;;;;1.55;1.33;;;;;;;;;;5017144;28;20492;-65
2023/05/28 06:49:07;;;;;;;4.50;1.80;;;;;;;;;;5001066;28;20106;-64
2023/05/28 06:51:32;;;;;;;3.05;1.30;;;;;;;;;;5016587;28;20021;-64
2023/05/28 06:53:57;;;;;;;5.22;1.13;;;;;;;;;;5000785;28;20025;-64
2023/05/28 06:56:27;;;;;;;2.08;1.25;;;;;;;;;;5017159;28;20473;-64
2023/05/28 06:59:16;;;;;;;4.70;1.42;;;;;;;;;;5020282;28;20396;-64
2023/05/28 07:02:00;;;;;;;2.80;1.30;;;;;;;;;;5035061;28;20095;-64
2023/05/28 07:04:40;;;;;;;;;;;;;;;;;;5035097;28;20076;-65
2023/05/28 07:07:12;;;;;;;8.00;1.40;;;;;;;;;;5017132;28;19918;-65
2023/05/28 07:09:38;;;;;;;4.65;1.33;;;;;;;;;;5017014;28;20095;-64
2023/05/28 07:12:05;;;;;;;1.55;1.30;;;;;;;;;;5017052;28;20116;-65
2023/05/28 07:14:32;;;;;;;2.17;1.50;;;;;;;;;;5017262;28;20025;-65
2023/05/28 07:16:57;;;;;;;2.75;1.05;;;;;;;;;;5017042;28;20033;-65
2023/05/28 07:19:23;;;;;;;1.27;1.17;;;;;;;;;;5016897;28;20549;-65
2023/05/28 07:21:49;;;;;;;3.03;1.00;;;;;;;;;;5016838;28;20101;-65
2023/05/28 07:24:14;;;;;;;1.45;1.20;;;;;;;;;;5016845;28;20084;-65
2023/05/28 07:26:40;;;;;;;1.73;1.02;;;;;;;;;;5017562;28;20025;-65
2023/05/28 07:29:05;;;;;;;2.13;1.00;;;;;;;;;;5016666;28;20033;-65
2023/05/28 07:31:31;;;;;;;1.90;1.00;;;;;;;;;;5034434;28;20037;-65
2023/05/28 07:33:58;;;;;;;1.95;1.00;;;;;;;;;;5016600;28;20559;-65
2023/05/28 07:36:29;;;;;;;2.72;1.00;;;;;;;;;;5016890;28;20029;-65
2023/05/28 07:38:54;;;;;;;3.08;1.45;;;;;;;;;;5016619;28;20025;-65
2023/05/28 07:41:21;;;;;;;2.50;1.27;;;;;;;;;;5016555;28;20488;-66
2023/05/28 07:43:57;;;;;;;2.67;1.20;;;;;;;;;;5034797;28;20091;-66
2023/05/28 07:46:25;;;;;;;4.03;1.20;;;;;;;;;;5016430;28;20112;-65
2023/05/28 07:48:58;;;;;;;3.17;1.05;;;;;;;;;;5016400;28;20036;-65
2023/05/28 07:51:26;;;;;;;2.70;1.25;;;;;;;;;;5017248;28;20026;-66
2023/05/28 07:54:03;;;;;;;4.20;1.30;;;;;;;;;;5016361;28;20029;-65
2023/05/28 07:56:29;;;;;;;2.58;1.42;;;;;;;;;;5016317;28;20030;-65
2023/05/28 07:58:55;;;;;;;4.13;1.02;;;;;;;;;;5016235;28;20044;-65
2023/05/28 08:01:22;;;;;;;2.55;1.10;;;;;;;;;;4999991;28;20480;-66
2023/05/28 08:03:53;;;;;;;1.75;1.27;;;;;;;;;;4999880;28;20037;-66
2023/05/28 08:06:26;;;;;;;3.50;1.10;;;;;;;;;;5034426;28;20104;-65
2023/05/28 08:08:52;;;;;;;2.75;1.17;;;;;;;;;;5016090;28;20039;-66
2023/05/28 08:11:18;;;;;;;2.25;1.10;;;;;;;;;;5016063;28;20018;-65
2023/05/28 08:13:44;;;;;;;2.75;1.33;;;;;;;;;;5016078;28;20029;-66
2023/05/28 08:16:11;;;;;;;1.80;1.25;;;;;;;;;;5033172;28;20025;-66
2023/05/28 08:18:56;;;;;;;3.28;1.10;;;;;;;;;;5032764;28;20061;-65
2023/05/28 08:21:22;;;;;;;2.63;1.30;;;;;;;;;;5016315;28;20414;-66
2023/05/28 08:23:48;;;;;;;2.90;1.20;;;;;;;;;;5015974;28;20021;-65
2023/05/28 08:26:13;;;;;;;1.83;1.23;;;;;;;;;;4999623;28;20378;-66
2023/05/28 08:28:38;;;;;;;1.27;1.05;;;;;;;;;;5015832;28;20037;-66
2023/05/28 08:31:05;;;;;;;3.50;1.10;;;;;;;;;;5015884;28;20055;-66
2023/05/28 08:33:43;;;;;;;3.08;1.52;;;;;;;;;;5001091;28;20404;-66
2023/05/28 08:36:08;;;;;;;2.35;1.23;;;;;;;;;;5015862;28;20112;-65
2023/05/28 08:38:34;;;;;;;2.42;1.90;;;;;;;;;;4999751;28;20017;-66
2023/05/28 08:41:01;;;;;;;2.60;2.40;;;;;;;;;;5015749;28;20033;-66
2023/05/28 08:43:27;;;;;;;2.83;1.35;;;;;;;;;;5015734;28;20487;-66
2023/05/28 08:45:53;;;;;;;3.00;1.35;;;;;;;;;;5048730;23;20426;-69
2023/05/28 08:48:25;;;;;;;2.05;1.30;;;;;;;;;;5072090;23;20052;-66
2023/05/28 08:50:51;;;;;;;2.15;1.58;;;;;;;;;;5035389;28;20029;-65
2023/05/28 08:53:32;;;;;;;3.50;1.10;;;;;;;;;;5052025;28;20119;-66
2023/05/28 08:56:01;;;;;;;5.63;1.60;;;;;;;;;;5051943;28;20090;-65
2023/05/28 08:58:31;;;;;;;4.43;1.40;;;;;;;;;;5035871;28;20044;-65
2023/05/28 09:00:56;;;;;;;1.92;1.42;;;;;;;;;;5051907;28;20025;-66
2023/05/28 09:03:33;;;;;;;5.82;1.50;;;;;;;;;;5051875;28;20476;-66
2023/05/28 09:06:06;;;;;;;2.70;1.20;;;;;;;;;;5052158;28;20033;-65
2023/05/28 09:08:32;;;;;;;1.60;1.20;;;;;;;;;;5051782;28;20071;-66
2023/05/28 09:10:57;;;;;;;1.52;1.30;;;;;;;;;;5051770;28;20033;-66
2023/05/28 09:13:25;;;;;;;2.88;1.30;;;;;;;;;;5051761;28;20033;-66
2023/05/28 09:15:51;;;;;;;1.38;1.27;;;;;;;;;;5051313;28;20485;-66
2023/05/28 09:18:20;;;;;;;1.20;1.10;;;;;;;;;;5035180;28;20025;-66
2023/05/28 09:20:48;;;;;;;3.63;2.17;;;;;;;;;;5035161;28;20119;-66
2023/05/28 09:23:15;;;;;;;2.92;1.63;;;;;;;;;;5051680;28;20120;-66
2023/05/28 09:26:01;;;;;;;2.75;1.60;;;;;;;;;;5052582;28;20120;-66
2023/05/28 09:28:31;;;;;;;4.65;1.60;;;;;;;;;;5054900;28;20029;-66
2023/05/28 09:31:03;;;;;;;3.05;1.40;;;;;;;;;;5056673;28;20082;-66
2023/05/28 09:33:29;;;;;;;2.70;2.20;;;;;;;;;;5056612;28;20025;-66
2023/05/28 09:36:01;;;;;;;1.95;1.10;;;;;;;;;;5056608;28;20033;-66
2023/05/28 09:38:36;;;;;;;3.08;1.35;;;;;;;;;;5055232;28;20530;-66
2023/05/28 09:41:03;;;;;;;2.33;1.33;;;;;;;;;;5056463;28;20036;-66
2023/05/28 09:43:31;;;;;;;3.17;1.30;;;;;;;;;;5056468;28;20028;-66
2023/05/28 09:46:06;;;;;;;2.63;1.40;;;;;;;;;;5056398;28;20025;-66
2023/05/28 09:48:32;;;;;;;1.65;1.23;;;;;;;;;;5056532;28;20102;-66
2023/05/28 09:50:59;;;;;;;3.10;1.42;;;;;;;;;;5056221;28;20115;-66
2023/05/28 09:53:24;;;;;;;2.67;1.33;;;;;;;;;;5056147;28;20037;-66
2023/05/28 09:55:50;;;;;;;6.43;1.52;;;;;;;;;;5056116;28;20036;-66
2023/05/28 09:58:16;;;;;;;3.13;1.45;;;;;;;;;;5056157;28;20083;-66
2023/05/28 10:00:44;;;;;;;2.50;1.30;;;;;;;;;;5056080;28;20033;-66
2023/05/28 10:03:16;;;;;;;2.28;1.15;;;;;;;;;;5055955;28;20036;-66
2023/05/28 10:05:47;;;;;;;2.72;1.35;;;;;;;;;;5055957;28;20059;-66
2023/05/28 10:08:15;;;;;;;1.88;1.67;;;;;;;;;;5056081;28;20117;-66
2023/05/28 10:10:45;;;;;;;1.90;1.80;;;;;;;;;;5055750;28;20029;-66
2023/05/28 10:13:11;;;;;;;2.10;1.60;;;;;;;;;;5037919;28;20013;-66
2023/05/28 10:15:37;;;;;;;3.20;1.38;;;;;;;;;;5055840;28;20769;-67
2023/05/28 10:18:03;;;;;;;5.97;1.42;;;;;;;;;;5037991;28;20025;-66
2023/05/28 10:20:29;;;;;;;4.07;1.40;;;;;;;;;;5037937;28;20025;-66
2023/05/28 10:22:55;;;;;;;2.85;1.50;;;;;;;;;;5055749;28;20040;-66
2023/05/28 10:25:20;;;;;;;1.55;1.27;;;;;;;;;;5055579;28;20473;-66
2023/05/28 10:27:48;;;;;;;2.42;1.40;;;;;;;;;;5055516;28;20496;-66
2023/05/28 10:30:30;;;;;;;4.18;1.42;;;;;;;;;;5037322;28;20067;-66
2023/05/28 10:32:55;;;;;;;5.75;1.30;;;;;;;;;;5037507;28;20029;-66
2023/05/28 10:35:21;;;;;;;1.38;1.27;;;;;;;;;;5055390;28;20174;-66
2023/05/28 10:37:46;;;;;;;2.08;1.00;;;;;;;;;;5055324;28;20036;-67
2023/05/28 10:40:21;;;;;;;2.58;1.38;;;;;;;;;;5054350;28;20036;-66
2023/05/28 10:42:46;;;;;;;3.53;1.45;;;;;;;;;;5055246;28;20028;-66
2023/05/28 10:45:12;;;;;;;1.60;1.15;;;;;;;;;;5055200;28;20029;-66
2023/05/28 10:47:38;;;;;;;17.83;15.48;;;;;;;;;;5055058;28;20143;-67
2023/05/28 10:50:15;;;;;;;16.90;13.93;;;;;;;;;;5037278;28;20036;-66
2023/05/28 10:52:41;;;;;;;4.20;1.25;;;;;;;;;;5055078;28;20025;-66
2023/05/28 10:55:08;;;;;;;4.40;1.35;;;;;;;;;;5055078;28;20479;-67
2023/05/28 10:57:51;;;;;;;6.55;1.35;;;;;;;;;;5037152;28;20507;-66
2023/05/28 11:00:23;;;;;;;2.38;1.85;;;;;;;;;;5054867;28;20068;-66
2023/05/28 11:02:52;;;;;;;1.40;1.17;;;;;;;;;;5054865;28;20456;-66
2023/05/28 11:05:22;;;;;;;2.17;1.20;;;;;;;;;;5054801;28;20040;-67
2023/05/28 11:07:47;;;;;;;2.03;1.40;;;;;;;;;;5054776;28;20029;-67
2023/05/28 11:10:14;;;;;;;2.15;1.30;;;;;;;;;;5054649;28;20436;-66
2023/05/28 11:12:40;;;;;;;5.53;1.30;;;;;;;;;;5036898;28;20119;-66
2023/05/28 11:15:07;;;;;;;2.58;1.63;;;;;;;;;;5020313;28;20112;-67
2023/05/28 11:17:36;;;;;;;4.65;3.00;;;;;;;;;;5036682;28;20500;-67
2023/05/28 11:20:02;;;;;;;1.30;1.17;;;;;;;;;;5054624;28;20107;-66
2023/05/28 11:22:33;;;;;;;2.78;1.60;;;;;;;;;;5054546;28;20090;-67
2023/05/28 11:25:05;;;;;;;2.13;1.40;;;;;;;;;;5054475;28;20025;-66
2023/05/28 11:27:32;;;;;;;4.20;1.13;;;;;;;;;;5036800;28;20036;-66
2023/05/28 11:30:00;;;;;;;3.75;1.50;;;;;;;;;;5054371;28;20071;-66
2023/05/28 11:32:27;;;;;;;3.00;1.40;;;;;;;;;;5036671;28;20025;-66
2023/05/28 11:34:55;;;;;;;2.15;1.05;;;;;;;;;;5054201;28;20070;-66
2023/05/28 11:37:26;;;;;;;2.38;1.30;;;;;;;;;;5054184;28;20475;-66
2023/05/28 11:39:52;;;;;;;3.42;1.90;;;;;;;;;;5054259;28;20542;-66
2023/05/28 11:42:19;;;;;;;1.73;1.60;;;;;;;;;;5019789;28;20024;-66
2023/05/28 11:44:47;;;;;;;3.65;1.35;;;;;;;;;;5054067;28;20036;-67
2023/05/28 11:47:13;;;;;;;3.45;2.10;;;;;;;;;;5053840;28;20068;-67
2023/05/28 11:49:38;;;;;;;6.68;4.70;;;;;;;;;;5035826;28;20068;-66
2023/05/28 11:52:04;;;;;;;5.20;3.60;;;;;;;;;;5036066;28;20033;-66
2023/05/28 11:54:29;;;;;;;3.03;1.92;;;;;;;;;;5054145;28;20028;-66
2023/05/28 11:56:55;;;;;;;2.88;1.40;;;;;;;;;;5053870;28;20556;-66
2023/05/28 11:59:20;;;;;;;2.67;1.30;;;;;;;;;;5053936;28;20024;-66
2023/05/28 12:01:46;;;;;;;2.47;1.50;;;;;;;;;;5053947;28;20468;-66
2023/05/28 12:04:11;;;;;;;3.17;1.45;;;;;;;;;;5053753;28;20040;-67
2023/05/28 12:06:54;;;;;;;1.30;1.13;;;;;;;;;;5035905;28;20033;-66
2023/05/28 12:09:19;;;;;;;1.83;1.10;;;;;;;;;;5035687;28;20502;-67
2023/05/28 12:12:03;;;;;;;3.20;1.38;;;;;;;;;;5053603;28;20033;-66
2023/05/28 12:14:32;;;;;;;2.10;1.10;;;;;;;;;;5053661;28;20116;-67
2023/05/28 12:17:03;;;;;;;1.65;1.30;;;;;;;;;;5053641;28;20028;-66
2023/05/28 12:19:31;;;;;;;5.00;1.63;;;;;;;;;;5053553;28;20455;-66
2023/05/28 12:21:57;;;;;;;5.40;3.55;;;;;;;;;;5035128;28;20485;-66
2023/05/28 12:24:25;;;;;;;6.63;6.10;;;;;;;;;;5035674;28;20028;-66
2023/05/28 12:26:52;;;;;;;5.55;5.00;;;;;;;;;;5035573;28;20495;-66
2023/05/28 12:29:18;;;;;;;72.53;65.28;;;;;;;;;;5034488;28;20037;-64
2023/05/28 12:31:44;;;;;;;11.68;10.57;;;;;;;;;;5053157;28;20024;-65
2023/05/28 12:34:09;;;;;;;8.45;7.45;;;;;;;;;;5053437;28;20029;-66
2023/05/28 12:36:34;;;;;;;5.30;4.88;;;;;;;;;;5035297;28;20378;-65
2023/05/28 12:39:00;;;;;;;4.50;1.75;;;;;;;;;;5053269;28;20102;-65
2023/05/28 12:41:26;;;;;;;2.10;1.95;;;;;;;;;;5052540;28;20033;-65
2023/05/28 12:43:51;;;;;;;3.40;1.73;;;;;;;;;;5035123;28;20082;-65
2023/05/28 12:46:17;;;;;;;3.10;1.38;;;;;;;;;;5035077;28;20025;-65
2023/05/28 12:48:42;;;;;;;2.85;1.00;;;;;;;;;;5052712;28;20068;-65
2023/05/28 12:51:08;;;;;;;2.55;1.90;;;;;;;;;;5052674;28;20083;-65
2023/05/28 12:53:33;;;;;;;3.15;1.20;;;;;;;;;;5034921;28;20465;-65
2023/05/28 12:55:58;;;;;;;2.75;1.50;;;;;;;;;;5034585;28;20071;-65
2023/05/28 12:58:24;;;;;;;1.33;1.23;;;;;;;;;;5052912;28;20075;-64
2023/05/28 13:00:50;;;;;;;3.08;1.60;;;;;;;;;;5052655;28;20173;-65
2023/05/28 13:03:16;;;;;;;1.20;1.10;;;;;;;;;;5055843;28;20033;-64
2023/05/28 13:05:42;;;;;;;3.55;1.48;;;;;;;;;;5056918;28;20522;-64
2023/05/28 13:08:07;;;;;;;1.50;1.38;;;;;;;;;;5021779;28;20502;-65
2023/05/28 13:10:33;;;;;;;1.98;1.20;;;;;;;;;;5056396;28;20037;-65
2023/05/28 13:12:59;;;;;;;1.50;1.40;;;;;;;;;;5038622;28;20113;-65
2023/05/28 13:15:24;;;;;;;1.30;1.20;;;;;;;;;;5056700;28;20124;-65
2023/05/28 13:17:49;;;;;;;2.30;1.45;;;;;;;;;;5038505;28;20074;-64
2023/05/28 13:20:15;;;;;;;2.25;1.50;;;;;;;;;;5055969;28;20102;-63
2023/05/28 13:22:41;;;;;;;2.67;1.35;;;;;;;;;;5056426;28;20037;-68
2023/05/28 13:25:16;;;;;;;2.13;1.48;;;;;;;;;;5057047;28;20025;-68
2023/05/28 13:27:41;;;;;;;2.55;1.40;;;;;;;;;;5056735;28;20065;-69
2023/05/28 13:30:08;;;;;;;3.88;1.30;;;;;;;;;;5056226;28;20106;-69
2023/05/28 13:32:33;;;;;;;2.03;1.40;;;;;;;;;;5038291;28;20473;-69
2023/05/28 13:34:59;;;;;;;6.47;1.27;;;;;;;;;;5038183;28;20036;-69
2023/05/28 13:37:26;;;;;;;1.98;1.30;;;;;;;;;;5038543;28;20025;-69
2023/05/28 13:39:51;;;;;;;2.35;1.20;;;;;;;;;;5056094;28;20111;-69
2023/05/28 13:42:19;;;;;;;2.22;1.30;;;;;;;;;;5056226;28;20406;-69
2023/05/28 13:44:46;;;;;;;1.20;1.05;;;;;;;;;;5038242;28;20032;-69
2023/05/28 13:47:11;;;;;;;1.50;1.40;;;;;;;;;;5038001;28;20082;-69
2023/05/28 13:49:36;;;;;;;1.40;1.30;;;;;;;;;;5056799;28;20053;-68
2023/05/28 13:52:02;;;;;;;3.65;1.60;;;;;;;;;;5021208;28;20028;-68
2023/05/28 13:54:27;;;;;;;1.50;1.40;;;;;;;;;;5038561;28;20468;-68
2023/05/28 13:56:53;;;;;;;1.63;1.50;;;;;;;;;;5066011;28;20017;-64
2023/05/28 13:59:18;;;;;;;4.15;1.63;;;;;;;;;;5076459;28;20119;-64
2023/05/28 14:01:51;;;;;;;2.67;1.58;;;;;;;;;;5076003;28;20064;-64
2023/05/28 14:04:17;;;;;;;2.25;2.00;;;;;;;;;;5076145;28;20041;-64
2023/05/28 14:06:42;;;;;;;2.45;1.33;;;;;;;;;;5076048;28;20027;-64
2023/05/28 14:09:08;;;;;;;3.90;1.20;;;;;;;;;;5076046;28;20460;-64
2023/05/28 14:11:34;;;;;;;4.50;1.60;;;;;;;;;;5076216;28;20066;-64
2023/05/28 14:13:59;;;;;;;17.83;9.90;;;;;;;;;;5075049;28;20029;-64
2023/05/28 14:16:25;;;;;;;3.03;1.65;;;;;;;;;;5058355;28;20084;-64
2023/05/28 14:18:50;;;;;;;4.00;1.63;;;;;;;;;;5076003;28;20089;-64
2023/05/28 14:21:16;;;;;;;1.50;1.40;;;;;;;;;;5076182;28;20039;-64
2023/05/28 14:23:41;;;;;;;1.67;1.58;;;;;;;;;;5041185;28;20033;-64
2023/05/28 14:26:06;;;;;;;2.80;2.17;;;;;;;;;;5074538;28;20127;-65
2023/05/28 14:28:32;;;;;;;3.05;1.48;;;;;;;;;;5074775;28;20404;-64
2023/05/28 14:30:57;;;;;;;1.50;1.40;;;;;;;;;;5040587;28;20067;-64
2023/05/28 14:33:23;;;;;;;4.28;1.30;;;;;;;;;;5074761;28;20082;-65
2023/05/28 14:35:48;;;;;;;1.88;1.15;;;;;;;;;;5074586;28;20383;-65
2023/05/28 14:38:13;;;;;;;2.45;1.42;;;;;;;;;;5074148;28;20031;-65
2023/05/28 14:40:39;;;;;;;1.30;1.20;;;;;;;;;;5074666;28;20028;-64
2023/05/28 14:43:04;;;;;;;3.17;1.27;;;;;;;;;;5074355;28;20103;-65
2023/05/28 14:45:30;;;;;;;3.03;1.45;;;;;;;;;;5039971;28;20085;-65